createdAt,value
2018-07-31T00:01:27.145Z,3.10
2018-07-31T00:03:55.581Z,1.73
2018-07-31T00:06:24.971Z,1.60
2018-07-31T00:08:56.495Z,2.43
2018-07-31T00:11:25.063Z,2.43
2018-07-31T00:13:53.796Z,2.43
2018-07-31T00:16:22.204Z,3.10
2018-07-31T00:18:50.619Z,2.17
2018-07-31T00:21:19.023Z,2.07
2018-07-31T00:23:47.451Z,2.20
2018-07-31T00:26:15.870Z,2.03
2018-07-31T00:28:44.303Z,2.60
2018-07-31T00:31:12.734Z,2.17
2018-07-31T00:33:41.215Z,1.70
2018-07-31T00:36:09.682Z,1.60
2018-07-31T00:38:38.163Z,1.50
2018-07-31T00:41:06.674Z,2.20
2018-07-31T00:43:35.120Z,1.87
2018-07-31T00:46:03.569Z,2.50
2018-07-31T00:48:32.066Z,1.43
2018-07-31T00:51:00.495Z,1.63
2018-07-31T00:53:28.942Z,1.43
2018-07-31T00:55:57.422Z,1.60
2018-07-31T00:58:26.033Z,1.80
2018-07-31T01:00:54.462Z,2.03
2018-07-31T01:03:23.148Z,2.30
2018-07-31T01:05:51.582Z,1.77
2018-07-31T01:08:19.978Z,1.67
2018-07-31T01:10:48.377Z,2.23
2018-07-31T01:13:16.834Z,1.43
2018-07-31T01:15:45.255Z,1.40
2018-07-31T01:18:13.381Z,1.60
2018-07-31T01:20:41.943Z,2.07
2018-07-31T01:23:10.345Z,1.43
2018-07-31T01:25:38.890Z,1.40
2018-07-31T01:28:07.306Z,2.77
2018-07-31T01:30:35.775Z,2.13
2018-07-31T01:33:04.184Z,1.40
2018-07-31T01:35:32.653Z,2.47
2018-07-31T01:38:01.164Z,1.33
2018-07-31T01:40:29.595Z,1.70
2018-07-31T01:42:58.095Z,1.80
2018-07-31T01:45:26.535Z,2.50
2018-07-31T01:47:54.986Z,1.60
2018-07-31T01:50:23.399Z,2.50
2018-07-31T01:52:52.130Z,1.53
2018-07-31T01:55:20.567Z,1.77
2018-07-31T01:57:48.999Z,1.30
2018-07-31T02:00:17.505Z,2.20
2018-07-31T02:02:46.350Z,2.13
2018-07-31T02:05:14.848Z,2.20
2018-07-31T02:07:43.300Z,1.73
2018-07-31T02:10:11.713Z,1.67
2018-07-31T02:12:40.168Z,1.57
2018-07-31T02:15:08.593Z,2.03
2018-07-31T02:17:37.028Z,1.57
2018-07-31T02:20:05.527Z,2.33
2018-07-31T02:22:33.932Z,2.40
2018-07-31T02:25:02.349Z,1.53
2018-07-31T02:27:30.777Z,1.30
2018-07-31T02:30:04.499Z,1.60
2018-07-31T02:32:32.971Z,1.30
2018-07-31T02:35:01.399Z,1.73
2018-07-31T02:37:29.816Z,1.67
2018-07-31T02:39:58.351Z,2.07
2018-07-31T02:42:26.875Z,2.37
2018-07-31T02:44:55.296Z,1.40
2018-07-31T02:47:23.767Z,1.30
2018-07-31T02:49:52.175Z,1.60
2018-07-31T02:52:20.595Z,2.33
2018-07-31T02:54:48.997Z,1.60
2018-07-31T02:57:17.387Z,1.60
2018-07-31T02:59:45.803Z,2.03
2018-07-31T03:02:14.599Z,1.50
2018-07-31T03:04:43.048Z,1.47
2018-07-31T03:07:11.459Z,1.50
2018-07-31T03:09:39.923Z,2.73
2018-07-31T03:12:08.350Z,1.40
2018-07-31T03:14:36.891Z,1.43
2018-07-31T03:17:05.339Z,1.93
2018-07-31T03:19:33.775Z,1.73
2018-07-31T03:22:02.197Z,1.60
2018-07-31T03:24:30.607Z,2.70
2018-07-31T03:26:59.042Z,1.77
2018-07-31T03:29:27.775Z,1.47
2018-07-31T03:31:56.832Z,2.50
2018-07-31T03:34:25.733Z,1.60
2018-07-31T03:36:54.168Z,2.10
2018-07-31T03:39:22.595Z,1.93
2018-07-31T03:41:50.999Z,1.50
2018-07-31T03:44:19.407Z,1.43
2018-07-31T03:46:47.832Z,3.00
2018-07-31T03:49:16.229Z,1.80
2018-07-31T03:51:44.661Z,2.17
2018-07-31T03:54:13.112Z,2.13
2018-07-31T03:56:41.548Z,2.03
2018-07-31T03:59:10.002Z,2.17
2018-07-31T04:01:38.407Z,2.17
2018-07-31T04:04:07.101Z,2.80
2018-07-31T04:06:35.572Z,2.93
2018-07-31T04:09:05.974Z,2.10
2018-07-31T04:11:34.402Z,2.23
2018-07-31T04:14:02.915Z,2.03
2018-07-31T04:16:31.471Z,1.43
2018-07-31T04:18:59.906Z,1.93
2018-07-31T04:21:28.311Z,1.97
2018-07-31T04:23:56.737Z,1.47
2018-07-31T04:26:25.157Z,1.97
2018-07-31T04:28:53.551Z,1.73
2018-07-31T04:31:22.074Z,1.40
2018-07-31T04:33:50.517Z,2.43
2018-07-31T04:36:19.053Z,6.40
2018-07-31T04:38:47.437Z,2.33
2018-07-31T04:41:15.924Z,1.87
2018-07-31T04:43:44.350Z,1.60
2018-07-31T04:46:12.821Z,2.07
2018-07-31T04:48:41.240Z,2.43
2018-07-31T04:51:09.658Z,2.77
2018-07-31T04:53:38.069Z,3.67
2018-07-31T04:56:06.499Z,2.30
2018-07-31T04:58:34.983Z,2.20
2018-07-31T05:01:03.444Z,2.67
2018-07-31T05:03:32.094Z,2.33
2018-07-31T05:06:02.675Z,2.03
2018-07-31T05:08:31.189Z,2.43
2018-07-31T05:10:59.625Z,2.73
2018-07-31T05:13:28.409Z,3.20
2018-07-31T05:15:56.822Z,7.87
2018-07-31T05:18:25.349Z,3.83
2018-07-31T05:20:53.868Z,6.40
2018-07-31T05:23:22.306Z,5.03
2018-07-31T05:25:50.725Z,4.97
2018-07-31T05:28:19.135Z,7.63
2018-07-31T05:30:47.806Z,5.30
2018-07-31T05:33:16.204Z,10.47
2018-07-31T05:35:44.671Z,6.30
2018-07-31T05:38:13.283Z,5.83
2018-07-31T05:40:41.679Z,4.73
2018-07-31T05:43:09.801Z,5.57
2018-07-31T05:45:38.245Z,13.40
2018-07-31T05:48:06.352Z,7.73
2018-07-31T05:50:34.824Z,8.20
2018-07-31T05:53:03.290Z,8.73
2018-07-31T05:55:31.748Z,6.60
2018-07-31T05:58:00.156Z,4.63
2018-07-31T06:00:28.602Z,4.73
2018-07-31T06:02:57.025Z,4.50
2018-07-31T06:05:25.436Z,3.80
2018-07-31T06:07:54.229Z,4.87
2018-07-31T06:10:22.664Z,5.97
2018-07-31T06:12:51.071Z,5.93
2018-07-31T06:15:19.522Z,4.13
2018-07-31T06:17:47.932Z,6.77
2018-07-31T06:20:17.136Z,4.63
2018-07-31T06:22:47.067Z,2.83
2018-07-31T06:25:15.737Z,3.53
2018-07-31T06:27:44.670Z,2.97
2018-07-31T06:30:14.356Z,4.10
2018-07-31T06:32:43.377Z,2.90
2018-07-31T06:35:11.812Z,5.77
2018-07-31T06:37:40.294Z,4.03
2018-07-31T06:40:09.307Z,2.73
2018-07-31T06:42:37.704Z,3.37
2018-07-31T06:45:06.413Z,5.40
2018-07-31T06:47:34.876Z,5.20
2018-07-31T06:50:03.334Z,4.17
2018-07-31T06:52:31.736Z,4.00
2018-07-31T06:55:00.168Z,3.57
2018-07-31T06:57:28.611Z,3.80
2018-07-31T06:59:57.040Z,3.90
2018-07-31T07:02:25.490Z,3.17
2018-07-31T07:04:53.891Z,2.07
2018-07-31T07:07:22.363Z,3.23
2018-07-31T07:09:50.923Z,2.47
2018-07-31T07:12:19.342Z,2.70
2018-07-31T07:14:47.796Z,3.10
2018-07-31T07:17:16.186Z,2.97
2018-07-31T07:19:44.579Z,4.73
2018-07-31T07:22:12.999Z,4.20
2018-07-31T07:24:41.405Z,2.23
2018-07-31T07:27:09.836Z,2.30
2018-07-31T07:29:38.236Z,4.53
2018-07-31T07:32:06.708Z,2.73
2018-07-31T07:34:35.127Z,4.53
2018-07-31T07:37:03.575Z,2.57
2018-07-31T07:39:32.001Z,4.93
2018-07-31T07:42:00.455Z,2.73
2018-07-31T07:44:28.903Z,2.57
2018-07-31T07:46:57.300Z,2.07
2018-07-31T07:49:25.666Z,2.93
2018-07-31T07:51:54.080Z,3.60
2018-07-31T07:54:22.492Z,2.30
2018-07-31T07:56:50.796Z,3.13
2018-07-31T07:59:19.210Z,2.43
2018-07-31T08:01:47.560Z,3.20
2018-07-31T08:04:15.930Z,2.30
2018-07-31T08:06:44.318Z,3.47
2018-07-31T08:09:12.644Z,1.93
2018-07-31T08:11:41.140Z,2.57
2018-07-31T08:14:09.508Z,2.00
2018-07-31T08:16:38.077Z,2.17
2018-07-31T08:19:06.455Z,1.87
2018-07-31T08:21:34.808Z,1.67
2018-07-31T08:24:03.286Z,2.77
2018-07-31T08:26:31.608Z,3.10
2018-07-31T08:28:59.953Z,2.53
2018-07-31T08:31:28.328Z,1.83
2018-07-31T08:33:56.710Z,3.33
2018-07-31T08:36:25.222Z,3.73
2018-07-31T08:38:53.639Z,2.23
2018-07-31T08:41:22.030Z,3.07
2018-07-31T08:43:50.380Z,1.40
2018-07-31T08:46:18.740Z,3.47
2018-07-31T08:48:47.102Z,2.20
2018-07-31T08:51:15.809Z,1.40
2018-07-31T08:53:44.141Z,1.33
2018-07-31T08:56:12.516Z,1.20
2018-07-31T08:58:40.972Z,1.57
2018-07-31T09:01:09.352Z,3.13
2018-07-31T09:03:37.783Z,1.50
2018-07-31T09:06:06.534Z,1.93
2018-07-31T09:08:34.933Z,2.83
2018-07-31T09:11:03.229Z,1.53
2018-07-31T09:13:31.633Z,1.80
2018-07-31T09:15:59.991Z,1.43
2018-07-31T09:18:28.369Z,2.90
2018-07-31T09:20:56.724Z,1.63
2018-07-31T09:23:25.048Z,2.17
2018-07-31T09:25:53.400Z,1.63
2018-07-31T09:28:21.758Z,1.83
2018-07-31T09:30:55.727Z,1.80
2018-07-31T09:33:24.009Z,2.37
2018-07-31T09:35:52.320Z,2.00
2018-07-31T09:38:20.671Z,3.30
2018-07-31T09:40:49.140Z,3.20
2018-07-31T09:43:18.125Z,2.80
2018-07-31T09:45:46.794Z,3.20
2018-07-31T09:48:15.536Z,2.17
2018-07-31T09:50:44.067Z,1.83
2018-07-31T09:53:12.559Z,2.00
2018-07-31T09:55:40.993Z,3.13
2018-07-31T09:58:09.454Z,2.00
2018-07-31T10:00:43.249Z,1.37
2018-07-31T10:03:11.659Z,1.63
2018-07-31T10:05:40.095Z,1.70
2018-07-31T10:08:08.555Z,1.60
2018-07-31T10:10:37.028Z,1.87
2018-07-31T10:13:05.486Z,2.30
2018-07-31T10:15:34.150Z,3.23
2018-07-31T10:18:02.599Z,2.20
2018-07-31T10:20:34.609Z,1.90
2018-07-31T10:23:03.066Z,1.80
2018-07-31T10:25:31.543Z,2.07
2018-07-31T10:27:59.992Z,1.67
2018-07-31T10:30:28.443Z,2.50
2018-07-31T10:32:56.867Z,1.47
2018-07-31T10:35:25.331Z,3.30
2018-07-31T10:37:53.810Z,2.20
2018-07-31T10:40:22.221Z,1.70
2018-07-31T10:42:50.599Z,1.40
2018-07-31T10:45:19.187Z,2.17
2018-07-31T10:47:47.595Z,2.20
2018-07-31T10:50:16.090Z,2.63
2018-07-31T10:52:44.511Z,1.80
2018-07-31T10:55:13.110Z,2.63
2018-07-31T10:57:41.836Z,2.53
2018-07-31T11:00:10.724Z,2.80
2018-07-31T11:02:39.851Z,4.40
2018-07-31T11:05:07.978Z,1.73
2018-07-31T11:07:36.350Z,2.07
2018-07-31T11:10:05.206Z,2.00
2018-07-31T11:12:33.890Z,2.20
2018-07-31T11:15:02.316Z,2.60
2018-07-31T11:17:31.818Z,3.37
2018-07-31T11:20:00.305Z,2.27
2018-07-31T11:22:28.746Z,4.57
2018-07-31T11:24:57.272Z,4.43
2018-07-31T11:27:25.718Z,4.23
2018-07-31T11:29:54.141Z,2.83
2018-07-31T11:32:22.513Z,3.73
2018-07-31T11:34:51.057Z,4.90
2018-07-31T11:37:19.481Z,3.73
2018-07-31T11:39:47.828Z,2.17
2018-07-31T11:42:16.195Z,4.23
2018-07-31T11:44:44.605Z,2.47
2018-07-31T11:47:12.940Z,3.33
2018-07-31T11:49:41.295Z,2.70
2018-07-31T11:52:09.660Z,3.70
2018-07-31T11:54:37.970Z,2.67
2018-07-31T11:57:06.335Z,3.30
2018-07-31T11:59:34.668Z,3.23
2018-07-31T12:02:02.987Z,2.30
2018-07-31T12:04:31.348Z,4.07
2018-07-31T12:06:59.713Z,2.80
2018-07-31T12:09:28.107Z,6.73
2018-07-31T12:11:56.519Z,4.23
2018-07-31T12:14:24.887Z,4.30
2018-07-31T12:16:53.225Z,2.97
2018-07-31T12:19:21.991Z,2.97
2018-07-31T12:21:50.486Z,3.83
2018-07-31T12:24:18.828Z,3.17
2018-07-31T12:26:47.135Z,4.60
2018-07-31T12:29:15.556Z,3.47
2018-07-31T12:31:43.947Z,4.93
2018-07-31T12:34:12.772Z,3.80
2018-07-31T12:36:41.139Z,4.37
2018-07-31T12:39:11.710Z,3.17
2018-07-31T12:41:39.803Z,3.97
2018-07-31T12:44:08.266Z,5.83
2018-07-31T12:46:37.590Z,4.23
2018-07-31T12:49:06.186Z,3.57
2018-07-31T12:51:34.535Z,3.73
2018-07-31T12:54:03.156Z,3.47
2018-07-31T12:56:31.711Z,3.43
2018-07-31T12:59:00.048Z,3.17
2018-07-31T13:01:28.396Z,4.00
2018-07-31T13:03:56.792Z,4.33
2018-07-31T13:06:25.178Z,3.30
2018-07-31T13:08:53.561Z,4.93
2018-07-31T13:11:21.967Z,3.37
2018-07-31T13:13:50.326Z,5.07
2018-07-31T13:16:18.670Z,3.83
2018-07-31T13:18:47.075Z,3.50
2018-07-31T13:21:15.532Z,4.13
2018-07-31T13:23:43.912Z,4.53
2018-07-31T13:26:12.226Z,3.13
2018-07-31T13:28:40.579Z,3.60
2018-07-31T13:31:09.025Z,3.43
2018-07-31T13:33:37.437Z,3.00
2018-07-31T13:36:05.808Z,2.40
2018-07-31T13:38:34.183Z,3.03
2018-07-31T13:41:02.549Z,4.03
2018-07-31T13:43:31.111Z,3.07
2018-07-31T13:45:59.396Z,4.10
2018-07-31T13:48:27.747Z,3.90
2018-07-31T13:50:56.132Z,3.53
2018-07-31T13:53:24.502Z,6.93
2018-07-31T13:55:52.883Z,4.33
2018-07-31T13:58:21.252Z,5.23
2018-07-31T14:00:49.610Z,3.50
2018-07-31T14:03:17.957Z,3.80
2018-07-31T14:05:46.349Z,3.87
2018-07-31T14:08:14.736Z,3.03
2018-07-31T14:10:43.157Z,4.30
2018-07-31T14:13:11.524Z,4.47
2018-07-31T14:15:39.919Z,2.33
2018-07-31T14:18:08.461Z,3.77
2018-07-31T14:20:36.937Z,3.10
2018-07-31T14:23:05.596Z,4.30
2018-07-31T14:25:34.501Z,2.27
2018-07-31T14:28:02.887Z,7.23
2018-07-31T14:30:31.424Z,5.57
2018-07-31T14:32:59.832Z,6.77
2018-07-31T14:35:28.205Z,6.97
2018-07-31T14:37:56.536Z,5.33
2018-07-31T14:40:24.876Z,9.30
2018-07-31T14:42:53.292Z,5.07
2018-07-31T14:45:21.664Z,5.43
2018-07-31T14:47:50.018Z,5.87
2018-07-31T14:50:18.393Z,5.80
2018-07-31T14:52:46.736Z,6.47
2018-07-31T14:55:15.165Z,5.30
2018-07-31T14:57:43.616Z,5.30
2018-07-31T15:00:11.947Z,5.33
2018-07-31T15:02:40.319Z,4.67
2018-07-31T15:05:08.686Z,4.87
2018-07-31T15:07:37.063Z,5.77
2018-07-31T15:10:06.158Z,4.13
2018-07-31T15:12:34.524Z,4.43
2018-07-31T15:15:02.894Z,4.10
2018-07-31T15:17:31.228Z,4.73
2018-07-31T15:19:59.646Z,5.73
2018-07-31T15:22:27.972Z,6.03
2018-07-31T15:24:56.492Z,10.97
2018-07-31T15:27:25.953Z,5.27
2018-07-31T15:29:54.304Z,5.50
2018-07-31T15:32:22.680Z,6.77
2018-07-31T15:34:51.028Z,7.10
2018-07-31T15:37:19.651Z,9.33
2018-07-31T15:39:47.989Z,10.70
2018-07-31T15:42:16.362Z,11.47
2018-07-31T15:44:44.711Z,7.70
2018-07-31T15:47:13.049Z,8.67
2018-07-31T15:49:41.404Z,6.30
2018-07-31T15:52:09.727Z,6.60
2018-07-31T15:54:38.096Z,7.67
2018-07-31T15:57:06.440Z,5.67
2018-07-31T15:59:34.825Z,7.40
2018-07-31T16:02:03.136Z,8.30
2018-07-31T16:04:31.469Z,9.20
2018-07-31T16:06:59.847Z,6.27
2018-07-31T16:09:28.310Z,7.07
2018-07-31T16:11:56.708Z,8.07
2018-07-31T16:14:25.855Z,6.93
2018-07-31T16:16:54.264Z,9.07
2018-07-31T16:19:22.724Z,5.77
2018-07-31T16:21:51.320Z,6.57
2018-07-31T16:24:19.752Z,7.77
2018-07-31T16:26:48.295Z,6.43
2018-07-31T16:29:17.493Z,7.03
2018-07-31T16:31:45.820Z,7.30
2018-07-31T16:34:14.185Z,9.73
2018-07-31T16:36:42.739Z,5.80
2018-07-31T16:39:11.948Z,4.83
2018-07-31T16:41:40.440Z,6.63
2018-07-31T16:44:08.780Z,5.77
2018-07-31T16:46:37.180Z,8.10
2018-07-31T16:49:05.518Z,7.17
2018-07-31T16:51:33.884Z,5.63
2018-07-31T16:54:02.207Z,6.07
2018-07-31T16:56:30.596Z,4.70
2018-07-31T16:58:59.021Z,8.57
2018-07-31T17:01:27.396Z,8.73
2018-07-31T17:03:55.747Z,8.23
2018-07-31T17:06:24.090Z,10.63
2018-07-31T17:08:52.459Z,8.83
2018-07-31T17:11:20.794Z,8.97
2018-07-31T17:13:48.891Z,8.23
2018-07-31T17:16:17.305Z,6.63
2018-07-31T17:18:46.317Z,9.60
2018-07-31T17:21:14.769Z,8.50
2018-07-31T17:23:43.117Z,12.97
2018-07-31T17:26:11.528Z,16.43
2018-07-31T17:28:40.136Z,8.33
2018-07-31T17:31:08.521Z,7.57
2018-07-31T17:33:36.962Z,8.33
2018-07-31T17:36:05.313Z,8.03
2018-07-31T17:38:33.732Z,9.00
2018-07-31T17:41:02.167Z,8.03
2018-07-31T17:43:30.541Z,8.27
2018-07-31T17:45:58.876Z,5.03
2018-07-31T17:48:27.275Z,6.80
2018-07-31T17:50:55.678Z,7.23
2018-07-31T17:53:24.005Z,9.83
2018-07-31T17:55:52.349Z,6.37
2018-07-31T17:58:20.741Z,6.00
2018-07-31T18:00:49.082Z,6.10
2018-07-31T18:03:17.432Z,6.37
2018-07-31T18:05:45.775Z,7.77
2018-07-31T18:08:14.141Z,6.87
2018-07-31T18:10:42.555Z,9.37
2018-07-31T18:13:11.020Z,5.17
2018-07-31T18:15:39.363Z,4.40
2018-07-31T18:18:07.691Z,7.27
2018-07-31T18:20:36.114Z,5.63
2018-07-31T18:23:04.446Z,4.77
2018-07-31T18:25:32.901Z,11.13
2018-07-31T18:28:01.339Z,6.67
2018-07-31T18:30:31.736Z,6.80
2018-07-31T18:33:03.320Z,8.40
2018-07-31T18:35:31.711Z,8.03
2018-07-31T18:38:00.044Z,3.70
2018-07-31T18:40:28.498Z,3.57
2018-07-31T18:42:56.900Z,4.57
2018-07-31T18:45:25.260Z,8.63
2018-07-31T18:47:53.640Z,7.23
2018-07-31T18:50:22.162Z,6.43
2018-07-31T18:52:50.558Z,7.47
2018-07-31T18:55:18.962Z,7.33
2018-07-31T18:57:47.345Z,6.43
2018-07-31T19:00:15.727Z,6.80
2018-07-31T19:02:44.091Z,11.47
2018-07-31T19:05:12.681Z,15.30
2018-07-31T19:07:41.112Z,6.37
2018-07-31T19:10:09.494Z,11.12
2018-07-31T19:12:37.875Z,7.97
2018-07-31T19:15:06.216Z,9.40
2018-07-31T19:17:34.607Z,7.13
2018-07-31T19:20:02.992Z,2.90
2018-07-31T19:22:31.437Z,4.10
2018-07-31T19:24:59.879Z,6.10
2018-07-31T19:27:28.257Z,5.97
2018-07-31T19:29:56.703Z,4.03
2018-07-31T19:32:25.306Z,5.67
2018-07-31T19:34:53.701Z,4.43
2018-07-31T19:37:22.182Z,4.83
2018-07-31T19:39:50.620Z,6.20
2018-07-31T19:42:19.146Z,4.43
2018-07-31T19:44:47.589Z,6.30
2018-07-31T19:47:15.976Z,4.80
2018-07-31T19:49:44.500Z,5.17
2018-07-31T19:52:12.892Z,5.23
2018-07-31T19:54:41.267Z,4.87
2018-07-31T19:57:10.336Z,6.53
2018-07-31T19:59:38.797Z,3.80
2018-07-31T20:02:07.342Z,2.67
2018-07-31T20:04:35.756Z,2.90
2018-07-31T20:07:04.220Z,2.70
2018-07-31T20:09:32.675Z,3.53
2018-07-31T20:12:01.151Z,5.50
2018-07-31T20:14:29.509Z,2.40
2018-07-31T20:16:57.996Z,3.53
2018-07-31T20:19:26.458Z,4.00
2018-07-31T20:21:54.963Z,2.97
2018-07-31T20:24:23.221Z,3.30
2018-07-31T20:26:51.612Z,4.17
2018-07-31T20:29:20.084Z,4.43
2018-07-31T20:31:48.543Z,3.63
2018-07-31T20:34:20.756Z,4.17
2018-07-31T20:36:49.231Z,4.60
2018-07-31T20:39:17.656Z,4.03
2018-07-31T20:41:46.149Z,2.40
2018-07-31T20:44:14.527Z,2.80
2018-07-31T20:46:42.877Z,2.17
2018-07-31T20:49:11.256Z,1.93
2018-07-31T20:51:39.355Z,4.50
2018-07-31T20:54:08.062Z,2.63
2018-07-31T20:56:36.456Z,3.43
2018-07-31T20:59:04.796Z,3.63
2018-07-31T21:01:33.183Z,3.57
2018-07-31T21:04:01.517Z,3.30
2018-07-31T21:06:29.980Z,3.73
2018-07-31T21:08:58.344Z,3.20
2018-07-31T21:12:55.904Z,2.63
2018-07-31T21:15:24.223Z,3.80
2018-07-31T21:17:52.574Z,4.47
2018-07-31T21:20:21.026Z,3.67
2018-07-31T21:22:49.370Z,4.00
2018-07-31T21:25:17.723Z,3.47
2018-07-31T21:27:46.188Z,2.40
2018-07-31T21:30:14.512Z,4.03
2018-07-31T21:32:42.881Z,3.60
2018-07-31T21:35:11.588Z,3.90
2018-07-31T21:37:39.912Z,2.93
2018-07-31T21:40:08.407Z,4.93
2018-07-31T21:42:36.788Z,3.50
2018-07-31T21:45:05.453Z,2.37
2018-07-31T21:47:33.895Z,3.57
2018-07-31T21:50:02.306Z,3.97
2018-07-31T21:52:30.784Z,2.90
2018-07-31T21:54:59.161Z,3.47
2018-07-31T21:57:27.492Z,3.20
2018-07-31T21:59:55.821Z,2.27
2018-07-31T22:02:24.148Z,3.67
2018-07-31T22:04:52.534Z,3.53
2018-07-31T22:07:20.854Z,5.27
2018-07-31T22:09:49.233Z,3.03
2018-07-31T22:12:17.584Z,2.07
2018-07-31T22:14:45.961Z,3.47
2018-07-31T22:17:14.309Z,2.30
2018-07-31T22:19:42.655Z,2.60
2018-07-31T22:22:10.985Z,2.17
2018-07-31T22:24:39.394Z,2.80
2018-07-31T22:27:07.686Z,3.47
2018-07-31T22:29:36.088Z,2.90
2018-07-31T22:32:04.501Z,3.10
2018-07-31T22:34:32.928Z,2.20
2018-07-31T22:37:01.667Z,2.90
2018-07-31T22:39:30.139Z,2.83
2018-07-31T22:41:58.551Z,4.13
2018-07-31T22:44:26.980Z,3.13
2018-07-31T22:46:55.431Z,3.23
2018-07-31T22:49:23.859Z,4.23
2018-07-31T22:51:52.284Z,3.13
2018-07-31T22:54:20.679Z,3.47
2018-07-31T22:56:49.109Z,3.67
2018-07-31T22:59:17.561Z,2.67
2018-07-31T23:01:45.974Z,3.33
2018-07-31T23:04:14.419Z,2.03
2018-07-31T23:06:42.844Z,3.33
2018-07-31T23:09:11.897Z,2.27
2018-07-31T23:11:40.395Z,2.17
2018-07-31T23:14:09.001Z,2.40
2018-07-31T23:16:37.557Z,2.30
2018-07-31T23:19:06.034Z,2.30
2018-07-31T23:21:34.711Z,2.40
2018-07-31T23:24:03.114Z,2.67
2018-07-31T23:26:31.547Z,2.30
2018-07-31T23:29:00.076Z,3.23
2018-07-31T23:31:28.470Z,2.67
2018-07-31T23:33:57.044Z,2.30
2018-07-31T23:36:25.463Z,1.93
2018-07-31T23:38:54.043Z,2.47
2018-07-31T23:41:22.461Z,3.03
2018-07-31T23:43:50.877Z,3.40
2018-07-31T23:46:19.279Z,3.83
2018-07-31T23:48:47.706Z,4.07
2018-07-31T23:51:16.108Z,2.60
2018-07-31T23:53:44.569Z,2.53
2018-07-31T23:56:13.153Z,1.83
2018-07-31T23:58:41.572Z,4.87
